Time;durP1;ratioP1;P1;durP2;ratioP2;P2;SDS_P1;SDS_P2;PMS_P1;PMS_P2;Temp;Humidity;BMP_temperature;BMP_pressure;BME280_temperature;BME280_humidity;BME280_pressure;Samples;Min_cycle;Max_cycle;Signal;HPM_P1;HPM_P2
2023/04/21 00:01:22;;;;;;;5.18;4.28;;;4.80;99.90;;;;;;5047259;28;20228;-70
2023/04/21 00:03:49;;;;;;;4.28;3.33;;;4.80;99.90;;;;;;5047504;28;20255;-70
2023/04/21 00:06:21;;;;;;;4.85;4.40;;;4.80;99.90;;;;;;5047352;28;20318;-70
2023/04/21 00:08:48;;;;;;;5.30;4.38;;;4.80;99.90;;;;;;5049281;28;20228;-70
2023/04/21 00:11:16;;;;;;;10.23;6.57;;;4.80;99.90;;;;;;5051199;28;20251;-70
2023/04/21 00:13:43;;;;;;;7.35;5.53;;;4.80;99.90;;;;;;5050465;28;20587;-70
2023/04/21 00:16:09;;;;;;;6.18;5.43;;;4.80;99.90;;;;;;5051378;28;20256;-71
2023/04/21 00:18:36;;;;;;;7.90;6.15;;;4.80;99.90;;;;;;5050029;28;20753;-70
2023/04/21 00:21:03;;;;;;;8.40;7.03;;;4.90;99.90;;;;;;5050685;28;20223;-70
2023/04/21 00:23:30;;;;;;;5.65;5.05;;;4.90;99.90;;;;;;5050571;28;20211;-70
2023/04/21 00:25:57;;;;;;;3.92;3.63;;;4.90;99.90;;;;;;5051105;28;20229;-70
2023/04/21 00:28:25;;;;;;;7.03;5.22;;;4.80;99.90;;;;;;5049806;28;20201;-70
2023/04/21 00:30:53;;;;;;;5.95;4.97;;;4.80;99.90;;;;;;5050891;28;20233;-70
2023/04/21 00:33:19;;;;;;;4.95;3.83;;;4.90;99.90;;;;;;5050420;28;20211;-70
2023/04/21 00:35:47;;;;;;;5.20;3.83;;;4.90;99.90;;;;;;5050224;28;20259;-72
2023/04/21 00:38:13;;;;;;;6.93;5.57;;;4.80;99.90;;;;;;5050017;28;20204;-70
2023/04/21 00:40:40;;;;;;;7.30;5.28;;;4.90;99.90;;;;;;5046082;28;20235;-70
2023/04/21 00:43:07;;;;;;;5.13;4.65;;;4.90;99.90;;;;;;5038578;28;20699;-70
2023/04/21 00:45:35;;;;;;;5.75;4.53;;;5.00;99.90;;;;;;5049988;28;20236;-70
2023/04/21 00:48:02;;;;;;;9.27;4.65;;;5.00;99.90;;;;;;5049812;28;20202;-70
2023/04/21 00:50:29;;;;;;;10.30;6.72;;;5.00;99.90;;;;;;5049832;28;20233;-70
2023/04/21 00:52:57;;;;;;;9.10;5.75;;;5.00;99.90;;;;;;5050254;28;20196;-70
2023/04/21 00:55:24;;;;;;;6.43;4.47;;;5.10;99.90;;;;;;5050107;28;20225;-70
2023/04/21 00:57:52;;;;;;;10.38;5.90;;;5.10;99.90;;;;;;5050123;28;20201;-71
2023/04/21 01:00:19;;;;;;;7.80;4.40;;;5.20;99.90;;;;;;5049220;28;20197;-70
2023/04/21 01:02:48;;;;;;;12.13;6.53;;;5.20;99.90;;;;;;5049079;28;20215;-70
2023/04/21 01:05:15;;;;;;;6.93;5.93;;;5.20;99.90;;;;;;5048181;28;20212;-70
2023/04/21 01:07:42;;;;;;;7.25;6.30;;;5.20;99.90;;;;;;5049664;28;20223;-70
2023/04/21 01:10:09;;;;;;;11.05;6.03;;;5.20;99.90;;;;;;5049300;28;20585;-70
2023/04/21 01:12:43;;;;;;;7.28;4.63;;;5.20;99.90;;;;;;5049699;28;20670;-70
2023/04/21 01:15:11;;;;;;;11.77;5.60;;;5.20;99.90;;;;;;5049464;28;20201;-70
2023/04/21 01:17:39;;;;;;;12.80;8.60;;;5.10;99.90;;;;;;5039353;28;20209;-70
2023/04/21 01:20:12;;;;;;;9.02;6.68;;;5.10;99.90;;;;;;5048378;28;20677;-70
2023/04/21 01:22:43;;;;;;;7.20;4.75;;;5.10;99.90;;;;;;5049789;28;20205;-70
2023/04/21 01:25:11;;;;;;;8.02;6.32;;;5.10;99.90;;;;;;5049607;28;20657;-70
2023/04/21 01:27:39;;;;;;;17.50;7.28;;;5.10;99.90;;;;;;5037819;28;20202;-70
2023/04/21 01:30:08;;;;;;;8.07;6.32;;;5.10;99.90;;;;;;5048902;28;20992;-70
2023/04/21 01:32:36;;;;;;;10.70;7.60;;;5.00;99.90;;;;;;5049683;28;20198;-70
2023/04/21 01:35:05;;;;;;;10.02;6.65;;;5.00;99.90;;;;;;5049643;28;20610;-70
2023/04/21 01:37:33;;;;;;;11.32;7.45;;;4.90;99.90;;;;;;5049186;28;20225;-70
2023/04/21 01:40:07;;;;;;;9.50;6.53;;;5.00;99.90;;;;;;5048696;28;20205;-70
2023/04/21 01:42:36;;;;;;;6.95;5.53;;;5.00;99.90;;;;;;5048971;28;20237;-70
2023/04/21 01:45:04;;;;;;;11.57;8.25;;;4.80;99.90;;;;;;5049454;28;20217;-70
2023/04/21 01:47:31;;;;;;;8.85;5.72;;;4.80;99.90;;;;;;5048974;28;20200;-71
2023/04/21 01:49:59;;;;;;;11.93;8.10;;;4.80;99.90;;;;;;5048748;28;20219;-70
2023/04/21 01:52:27;;;;;;;11.00;8.50;;;4.80;99.90;;;;;;5048477;28;20290;-70
2023/04/21 01:54:55;;;;;;;8.15;6.05;;;4.70;99.90;;;;;;5046948;28;20735;-70
2023/04/21 01:57:23;;;;;;;9.18;7.25;;;4.60;99.90;;;;;;5048749;28;20584;-70
2023/04/21 01:59:52;;;;;;;4.82;4.32;;;4.50;99.90;;;;;;5048497;28;20208;-71
2023/04/21 02:02:20;;;;;;;8.52;7.55;;;4.50;99.90;;;;;;5048870;28;20247;-71
2023/04/21 02:04:48;;;;;;;13.73;6.18;;;4.50;99.90;;;;;;5048979;28;20208;-71
2023/04/21 02:07:15;;;;;;;8.80;7.85;;;4.40;99.90;;;;;;5048238;28;20756;-71
2023/04/21 02:09:43;;;;;;;8.07;6.82;;;4.40;99.90;;;;;;5048052;28;20208;-70
2023/04/21 02:12:10;;;;;;;13.93;7.53;;;4.30;99.90;;;;;;5048415;28;20224;-71
2023/04/21 02:14:39;;;;;;;8.60;4.65;;;4.30;99.90;;;;;;5048252;28;20628;-70
2023/04/21 02:17:05;;;;;;;7.88;5.07;;;4.20;99.90;;;;;;5048469;28;20223;-70
2023/04/21 02:19:32;;;;;;;11.93;7.43;;;4.10;99.90;;;;;;5048025;28;20775;-71
2023/04/21 02:21:59;;;;;;;7.30;5.65;;;4.10;99.90;;;;;;5048440;28;20220;-70
2023/04/21 02:24:26;;;;;;;9.73;6.40;;;4.00;99.90;;;;;;5048606;28;20227;-71
2023/04/21 02:26:56;;;;;;;7.82;7.03;;;4.00;99.90;;;;;;5048128;28;20698;-70
2023/04/21 02:29:23;;;;;;;8.50;6.32;;;4.00;99.90;;;;;;5047859;28;20290;-70
2023/04/21 02:31:52;;;;;;;3.15;2.80;;;4.00;99.90;;;;;;5048340;28;20290;-71
2023/04/21 02:34:20;;;;;;;8.70;5.00;;;4.00;99.90;;;;;;5048449;28;20223;-71
2023/04/21 02:36:48;;;;;;;9.13;5.00;;;3.90;99.90;;;;;;5048403;28;20230;-70
2023/04/21 02:39:16;;;;;;;7.53;3.42;;;3.80;99.90;;;;;;5047807;28;20208;-71
2023/04/21 02:41:43;;;;;;;6.20;4.50;;;3.80;99.90;;;;;;5043123;28;20240;-70
2023/04/21 02:44:10;;;;;;;5.72;4.90;;;3.80;99.90;;;;;;5048120;28;20680;-71
2023/04/21 02:46:40;;;;;;;8.25;6.10;;;3.80;99.90;;;;;;5047541;28;20235;-71
2023/04/21 02:49:09;;;;;;;5.22;4.05;;;3.80;99.90;;;;;;5047123;28;20287;-70
2023/04/21 02:51:36;;;;;;;9.15;5.97;;;3.80;99.90;;;;;;5047152;28;20223;-71
2023/04/21 02:54:05;;;;;;;5.32;4.68;;;3.80;99.90;;;;;;5047943;28;20201;-70
2023/04/21 02:56:33;;;;;;;8.50;4.13;;;3.80;99.90;;;;;;5047744;28;20223;-70
2023/04/21 02:59:01;;;;;;;6.35;5.10;;;3.80;99.90;;;;;;5037428;28;20305;-71
2023/04/21 03:01:28;;;;;;;7.75;4.97;;;3.70;99.90;;;;;;5045921;28;20317;-70
2023/04/21 03:03:55;;;;;;;6.57;3.92;;;3.50;99.90;;;;;;5048007;28;20559;-70
2023/04/21 03:06:24;;;;;;;6.20;5.68;;;3.60;99.90;;;;;;5047839;28;20310;-71
2023/04/21 03:08:52;;;;;;;5.75;4.00;;;3.60;99.90;;;;;;5047329;28;20211;-71
2023/04/21 03:11:20;;;;;;;6.35;4.05;;;3.60;99.90;;;;;;5047624;28;20234;-71
2023/04/21 03:13:46;;;;;;;7.15;4.70;;;3.50;99.90;;;;;;5047952;28;20238;-70
2023/04/21 03:16:14;;;;;;;5.50;3.85;;;3.50;99.90;;;;;;5047309;28;20255;-70
2023/04/21 03:18:41;;;;;;;5.88;3.78;;;3.50;99.90;;;;;;5047372;28;20230;-70
2023/04/21 03:21:08;;;;;;;5.32;3.40;;;3.60;99.90;;;;;;5047419;28;20853;-70
2023/04/21 03:23:36;;;;;;;3.85;3.20;;;3.60;99.90;;;;;;5047254;28;20200;-71
2023/04/21 03:26:06;;;;;;;6.38;5.22;;;3.60;99.90;;;;;;5047718;28;20310;-70
2023/04/21 03:28:33;;;;;;;7.90;4.45;;;3.50;99.90;;;;;;5046748;28;20307;-70
2023/04/21 03:31:00;;;;;;;4.75;4.00;;;3.50;99.90;;;;;;5047524;28;20235;-70
2023/04/21 03:33:27;;;;;;;5.05;4.65;;;3.40;99.90;;;;;;5047852;28;20293;-70
2023/04/21 03:35:53;;;;;;;5.45;4.57;;;3.40;99.90;;;;;;5047978;28;20227;-70
2023/04/21 03:38:20;;;;;;;6.70;6.10;;;3.50;99.90;;;;;;5046369;28;20342;-71
2023/04/21 03:40:49;;;;;;;5.72;4.72;;;3.50;99.90;;;;;;5042591;28;20231;-70
2023/04/21 03:43:15;;;;;;;3.70;3.20;;;3.50;99.90;;;;;;5048769;28;20204;-70
2023/04/21 03:45:42;;;;;;;6.55;4.22;;;3.50;99.90;;;;;;5051375;28;20259;-70
2023/04/21 03:48:09;;;;;;;6.13;4.15;;;3.50;99.90;;;;;;5051401;28;20669;-70
2023/04/21 03:50:36;;;;;;;5.13;3.83;;;3.50;99.90;;;;;;5051184;28;20224;-70
2023/04/21 03:53:03;;;;;;;5.55;5.15;;;3.60;99.90;;;;;;5051151;28;20224;-70
2023/04/21 03:55:29;;;;;;;9.65;6.00;;;3.70;99.90;;;;;;5051163;28;20231;-71
2023/04/21 03:57:57;;;;;;;6.13;4.13;;;3.70;99.90;;;;;;5049978;28;20208;-70
2023/04/21 04:00:24;;;;;;;7.10;5.47;;;3.70;99.90;;;;;;5040171;28;20235;-70
2023/04/21 04:02:51;;;;;;;7.18;5.25;;;3.70;99.90;;;;;;5051026;28;20239;-70
2023/04/21 04:05:18;;;;;;;6.40;5.35;;;3.70;99.90;;;;;;5051069;28;20688;-70
2023/04/21 04:07:45;;;;;;;6.57;5.63;;;3.70;99.90;;;;;;5050930;28;20208;-70
2023/04/21 04:10:12;;;;;;;5.93;4.70;;;3.80;99.90;;;;;;5050382;28;20594;-70
2023/04/21 04:12:38;;;;;;;8.15;5.80;;;3.80;99.90;;;;;;5050891;28;20239;-71
2023/04/21 04:15:08;;;;;;;4.50;4.15;;;3.80;99.90;;;;;;5050799;28;20200;-70
2023/04/21 04:17:35;;;;;;;7.90;5.85;;;3.90;99.90;;;;;;5050895;28;20205;-70
2023/04/21 04:20:03;;;;;;;7.10;5.60;;;3.90;99.90;;;;;;5050704;28;20212;-70
2023/04/21 04:22:30;;;;;;;8.82;6.20;;;4.00;99.90;;;;;;5050580;28;20207;-70
2023/04/21 04:24:58;;;;;;;6.25;5.30;;;4.10;99.90;;;;;;5051287;28;20207;-70
2023/04/21 04:27:25;;;;;;;7.63;4.68;;;4.10;99.90;;;;;;5050322;28;20228;-70
2023/04/21 04:29:53;;;;;;;6.35;5.10;;;4.10;99.90;;;;;;5050324;28;20212;-70
2023/04/21 04:32:21;;;;;;;14.95;7.30;;;4.20;99.90;;;;;;5050531;28;20321;-70
2023/04/21 04:34:47;;;;;;;11.23;5.50;;;4.20;99.90;;;;;;5050807;28;20207;-70
2023/04/21 04:37:15;;;;;;;7.90;5.15;;;4.20;99.90;;;;;;5050627;28;20715;-70
2023/04/21 04:39:41;;;;;;;6.78;5.00;;;4.30;99.90;;;;;;5050130;28;20215;-70
2023/04/21 04:42:08;;;;;;;10.90;4.75;;;4.30;99.90;;;;;;5050348;28;20224;-69
2023/04/21 04:44:36;;;;;;;7.68;4.93;;;4.30;99.90;;;;;;5050491;28;20677;-70
2023/04/21 04:47:03;;;;;;;9.98;7.47;;;4.30;99.90;;;;;;5050598;28;20726;-70
2023/04/21 04:49:31;;;;;;;9.77;7.97;;;4.40;99.90;;;;;;5049734;28;20207;-69
2023/04/21 04:51:58;;;;;;;9.00;6.72;;;4.50;99.90;;;;;;5049732;28;20236;-70
2023/04/21 04:54:27;;;;;;;6.97;5.75;;;4.50;99.90;;;;;;5049189;28;21000;-73
2023/04/21 04:56:54;;;;;;;10.88;6.75;;;4.50;99.90;;;;;;5050089;28;20225;-73
2023/04/21 04:59:21;;;;;;;10.25;5.35;;;4.60;99.90;;;;;;5047771;28;20218;-73
2023/04/21 05:01:48;;;;;;;5.88;4.45;;;4.60;99.90;;;;;;5050095;28;20241;-73
2023/04/21 05:04:16;;;;;;;8.10;4.13;;;4.60;99.90;;;;;;5050130;28;20204;-73
2023/04/21 05:10:08;;;;;;;9.60;6.50;;;4.70;99.90;;;;;;5009607;28;20209;-73
2023/04/21 05:12:34;;;;;;;9.57;7.38;;;4.70;99.90;;;;;;5062975;28;20223;-72
2023/04/21 05:15:01;;;;;;;12.82;7.03;;;4.70;99.90;;;;;;5043741;28;20206;-73
2023/04/21 05:17:29;;;;;;;8.77;7.25;;;4.70;99.90;;;;;;5044372;28;20208;-71
2023/04/21 05:19:56;;;;;;;6.20;5.30;;;4.80;99.90;;;;;;5048813;28;20254;-71
2023/04/21 05:22:24;;;;;;;8.48;4.45;;;4.80;99.90;;;;;;5039753;28;20226;-69
2023/04/21 05:24:51;;;;;;;7.45;6.15;;;4.80;99.90;;;;;;5039662;28;20216;-69
2023/04/21 05:27:18;;;;;;;15.25;7.80;;;4.80;99.90;;;;;;5042334;28;20677;-71
2023/04/21 05:29:45;;;;;;;7.00;6.30;;;4.90;99.90;;;;;;5044473;28;20605;-70
2023/04/21 05:32:12;;;;;;;11.38;5.68;;;4.80;99.90;;;;;;5048425;28;20232;-70
2023/04/21 05:34:39;;;;;;;9.20;7.03;;;4.80;99.90;;;;;;5033189;28;20575;-70
2023/04/21 05:37:05;;;;;;;8.70;6.75;;;4.80;99.90;;;;;;5041674;28;20788;-70
2023/04/21 05:39:33;;;;;;;14.10;8.90;;;4.90;99.90;;;;;;5044942;28;20695;-70
2023/04/21 05:42:01;;;;;;;11.73;6.15;;;4.90;99.90;;;;;;5041071;28;20230;-70
2023/04/21 05:44:28;;;;;;;14.50;7.30;;;4.90;99.90;;;;;;5037873;28;20692;-70
2023/04/21 05:46:54;;;;;;;4.88;4.35;;;5.00;99.90;;;;;;5042593;28;20307;-70
2023/04/21 05:49:21;;;;;;;13.18;7.20;;;5.00;99.90;;;;;;5048189;28;20201;-70
2023/04/21 05:51:48;;;;;;;10.85;6.35;;;5.00;99.90;;;;;;5046492;28;20225;-70
2023/04/21 05:54:15;;;;;;;10.23;5.43;;;5.00;99.90;;;;;;5049014;28;20209;-70
2023/04/21 05:56:43;;;;;;;6.93;5.90;;;5.00;99.90;;;;;;5033472;28;20307;-70
2023/04/21 05:59:10;;;;;;;11.55;8.20;;;5.00;99.90;;;;;;5047243;28;20204;-70
2023/04/21 06:01:37;;;;;;;14.93;5.85;;;5.00;99.90;;;;;;5048307;28;20224;-70
2023/04/21 06:04:04;;;;;;;8.63;4.40;;;5.00;99.90;;;;;;5037575;28;20201;-70
2023/04/21 06:06:30;;;;;;;5.68;5.10;;;5.00;99.90;;;;;;5035622;28;20239;-70
2023/04/21 06:08:57;;;;;;;5.72;4.90;;;5.00;99.90;;;;;;5048248;28;20288;-70
2023/04/21 06:11:24;;;;;;;10.02;6.00;;;5.10;99.90;;;;;;5048476;28;20227;-70
2023/04/21 06:13:57;;;;;;;8.65;6.35;;;5.20;99.90;;;;;;5038324;28;20200;-70
2023/04/21 06:16:23;;;;;;;8.10;5.78;;;5.30;99.90;;;;;;5048623;28;20225;-70
2023/04/21 06:18:50;;;;;;;10.93;5.70;;;5.40;99.90;;;;;;5046932;28;20209;-70
2023/04/21 06:21:17;;;;;;;11.38;6.82;;;5.40;99.90;;;;;;5048544;28;20973;-70
2023/04/21 06:23:44;;;;;;;10.75;6.95;;;5.50;99.90;;;;;;5048128;28;20292;-70
2023/04/21 06:26:11;;;;;;;9.30;5.15;;;5.60;99.90;;;;;;5048654;28;20240;-70
2023/04/21 06:28:39;;;;;;;6.93;5.32;;;5.70;99.90;;;;;;5047522;28;20215;-70
2023/04/21 06:31:08;;;;;;;12.32;7.90;;;5.80;99.90;;;;;;5048179;28;20293;-70
2023/04/21 06:33:35;;;;;;;11.65;5.55;;;5.90;99.90;;;;;;5048381;28;20230;-70
2023/04/21 06:36:02;;;;;;;15.05;7.97;;;5.90;99.90;;;;;;5047909;28;20320;-70
2023/04/21 06:38:29;;;;;;;7.22;4.90;;;6.00;99.90;;;;;;5047217;28;20210;-71
2023/04/21 06:40:56;;;;;;;13.48;6.25;;;6.00;99.90;;;;;;5048379;28;20713;-70
2023/04/21 06:43:22;;;;;;;14.57;7.78;;;5.90;99.90;;;;;;5059697;28;20208;-70
2023/04/21 06:45:58;;;;;;;7.78;7.00;;;6.00;99.90;;;;;;5048376;28;20232;-72
2023/04/21 06:48:28;;;;;;;10.95;7.25;;;6.10;99.90;;;;;;5047214;28;20220;-70
2023/04/21 06:50:55;;;;;;;7.10;6.40;;;6.00;99.90;;;;;;5048592;28;20229;-71
2023/04/21 06:53:22;;;;;;;11.88;7.78;;;6.00;99.90;;;;;;5047715;28;20224;-71
2023/04/21 06:55:49;;;;;;;11.82;7.05;;;6.00;99.90;;;;;;5047302;28;20237;-72
2023/04/21 06:58:15;;;;;;;24.55;6.60;;;6.00;99.90;;;;;;5043192;28;20218;-69
2023/04/21 07:00:42;;;;;;;6.78;4.68;;;6.10;99.90;;;;;;5028304;28;20690;-71
2023/04/21 07:03:09;;;;;;;9.23;7.10;;;6.10;99.90;;;;;;5041368;28;20223;-71
2023/04/21 07:05:37;;;;;;;10.68;7.68;;;6.10;99.90;;;;;;5048490;28;20232;-72
2023/04/21 07:08:04;;;;;;;10.30;6.72;;;6.30;99.90;;;;;;5047193;28;20293;-71
2023/04/21 07:10:31;;;;;;;9.02;6.03;;;6.30;99.90;;;;;;5046438;28;20237;-71
2023/04/21 07:12:57;;;;;;;11.07;6.97;;;6.50;99.90;;;;;;5047796;28;20642;-72
2023/04/21 07:15:24;;;;;;;9.68;6.40;;;6.70;99.90;;;;;;5047345;28;20229;-71
2023/04/21 07:17:51;;;;;;;9.60;6.45;;;6.70;99.90;;;;;;5046719;28;20210;-71
2023/04/21 07:20:18;;;;;;;12.57;7.15;;;6.70;99.90;;;;;;5046781;28;20673;-72
2023/04/21 07:22:46;;;;;;;12.65;5.95;;;6.80;99.90;;;;;;5048013;28;20203;-71
2023/04/21 07:25:13;;;;;;;13.82;7.00;;;6.80;99.90;;;;;;5047506;28;20211;-71
2023/04/21 07:27:40;;;;;;;9.80;6.00;;;6.90;99.90;;;;;;5047170;28;20220;-71
2023/04/21 07:30:07;;;;;;;8.35;5.60;;;7.00;99.90;;;;;;5047286;28;20217;-71
2023/04/21 07:32:36;;;;;;;11.52;8.05;;;7.10;99.90;;;;;;5046967;28;20222;-71
2023/04/21 07:35:03;;;;;;;11.30;6.32;;;7.10;99.90;;;;;;5047839;28;20205;-72
2023/04/21 07:37:29;;;;;;;6.60;4.63;;;7.20;99.90;;;;;;5047050;28;20297;-72
2023/04/21 07:39:58;;;;;;;7.50;5.70;;;7.40;99.90;;;;;;5047432;28;21050;-72
2023/04/21 07:42:25;;;;;;;10.80;6.75;;;7.50;99.90;;;;;;5031339;28;20308;-70
2023/04/21 07:44:53;;;;;;;7.00;5.07;;;7.70;99.90;;;;;;5046676;28;20571;-71
2023/04/21 07:47:20;;;;;;;5.40;4.20;;;7.80;99.90;;;;;;5047710;28;20655;-71
2023/04/21 07:49:47;;;;;;;11.20;8.63;;;8.00;99.90;;;;;;5046241;28;20623;-72
2023/04/21 07:52:14;;;;;;;8.47;5.50;;;8.20;99.90;;;;;;5046547;28;21296;-72
2023/04/21 07:54:41;;;;;;;5.97;4.40;;;8.20;99.90;;;;;;5047124;28;20654;-72
2023/04/21 07:57:09;;;;;;;5.20;4.60;;;8.40;99.90;;;;;;5047295;28;20751;-72
2023/04/21 07:59:36;;;;;;;4.93;4.10;;;8.60;99.90;;;;;;5036118;28;20630;-71
2023/04/21 08:02:02;;;;;;;6.73;3.90;;;8.80;99.90;;;;;;5033675;28;20771;-72
2023/04/21 08:04:29;;;;;;;5.43;4.73;;;8.80;99.90;;;;;;5049722;28;20632;-72
2023/04/21 08:06:56;;;;;;;4.77;4.33;;;9.00;99.90;;;;;;5046625;28;20680;-72
2023/04/21 08:09:23;;;;;;;5.33;4.77;;;9.20;99.90;;;;;;5046617;28;20977;-72
2023/04/21 08:11:50;;;;;;;5.30;3.60;;;9.30;99.90;;;;;;5046874;28;20643;-73
2023/04/21 08:14:18;;;;;;;6.40;5.23;;;9.50;99.90;;;;;;5047264;28;20668;-73
2023/04/21 08:16:45;;;;;;;9.10;3.30;;;9.80;99.90;;;;;;5047651;28;20692;-73
2023/04/21 08:19:12;;;;;;;4.40;4.07;;;9.50;99.90;;;;;;5046685;28;20665;-73
2023/04/21 08:21:40;;;;;;;5.00;4.60;;;9.50;99.90;;;;;;5047443;28;20658;-73
2023/04/21 08:24:07;;;;;;;5.50;3.60;;;9.50;99.90;;;;;;5047225;28;20635;-73
2023/04/21 08:26:35;;;;;;;6.23;4.80;;;9.70;99.90;;;;;;5046639;28;21260;-73
2023/04/21 08:29:04;;;;;;;4.70;3.90;;;9.90;99.90;;;;;;5046814;28;20629;-73
2023/04/21 08:31:32;;;;;;;2.90;2.60;;;10.00;99.90;;;;;;5049742;28;20724;-73
2023/04/21 08:34:00;;;;;;;5.50;3.47;;;10.10;99.90;;;;;;5050225;28;20698;-73
2023/04/21 08:36:27;;;;;;;3.37;3.03;;;10.10;99.90;;;;;;5049909;28;20657;-73
2023/04/21 08:38:54;;;;;;;4.50;4.07;;;10.30;99.90;;;;;;5048532;28;20629;-73
2023/04/21 08:41:21;;;;;;;5.07;4.57;;;10.30;99.90;;;;;;5050022;28;20639;-73
2023/04/21 08:43:48;;;;;;;6.93;3.83;;;10.40;99.90;;;;;;5050313;28;21203;-73
2023/04/21 08:46:16;;;;;;;5.73;3.83;;;10.50;99.90;;;;;;5049397;28;20661;-73
2023/04/21 08:48:46;;;;;;;4.17;3.47;;;10.70;99.90;;;;;;5049621;28;20647;-73
2023/04/21 08:51:20;;;;;;;5.03;3.90;;;10.80;99.90;;;;;;5050379;28;21215;-73
2023/04/21 08:53:47;;;;;;;2.70;2.50;;;10.90;99.90;;;;;;5050620;28;20643;-73
2023/04/21 08:56:13;;;;;;;3.77;2.87;;;11.00;99.90;;;;;;5049028;28;21232;-73
2023/04/21 08:58:41;;;;;;;3.13;2.60;;;11.10;99.70;;;;;;5042232;28;21193;-73
2023/04/21 09:01:07;;;;;;;4.10;3.60;;;11.00;99.10;;;;;;5044843;28;20705;-73
2023/04/21 09:03:34;;;;;;;4.83;2.73;;;11.00;99.30;;;;;;5049624;28;20982;-73
2023/04/21 09:06:04;;;;;;;5.23;3.20;;;11.10;99.00;;;;;;5049900;28;20651;-73
2023/04/21 09:08:31;;;;;;;4.47;3.67;;;11.30;98.80;;;;;;5046524;28;20627;-73
2023/04/21 09:11:00;;;;;;;4.10;3.00;;;11.30;98.80;;;;;;5044098;28;20660;-73
2023/04/21 09:13:31;;;;;;;2.40;2.20;;;11.30;98.50;;;;;;5049774;28;20645;-73
2023/04/21 09:15:59;;;;;;;3.70;2.07;;;11.30;98.00;;;;;;5048601;28;20659;-73
2023/04/21 09:18:27;;;;;;;3.17;2.27;;;11.30;97.80;;;;;;5049390;28;20629;-73
2023/04/21 09:21:07;;;;;;;2.90;2.53;;;11.40;97.50;;;;;;5049326;28;21091;-73
2023/04/21 09:23:43;;;;;;;2.63;2.43;;;11.50;97.60;;;;;;5049993;28;20629;-73
2023/04/21 09:26:10;;;;;;;3.90;2.93;;;11.50;98.30;;;;;;5049502;28;21010;-73
2023/04/21 09:28:40;;;;;;;4.97;4.00;;;11.30;97.40;;;;;;5033865;28;21202;-73
2023/04/21 09:31:14;;;;;;;3.93;2.23;;;11.30;98.20;;;;;;5039841;28;20650;-73
2023/04/21 09:33:44;;;;;;;4.30;3.30;;;11.50;97.80;;;;;;5048929;28;20723;-73
2023/04/21 09:36:19;;;;;;;2.93;2.67;;;11.70;97.80;;;;;;5049557;28;20666;-73
2023/04/21 09:38:49;;;;;;;3.43;2.43;;;11.90;98.00;;;;;;5048826;28;20629;-73
2023/04/21 09:41:17;;;;;;;2.77;2.57;;;12.10;98.00;;;;;;5048009;28;20643;-73
2023/04/21 09:43:44;;;;;;;3.90;3.00;;;12.20;97.20;;;;;;5048722;28;20630;-73
2023/04/21 09:46:11;;;;;;;2.93;2.30;;;12.30;97.10;;;;;;5049564;28;20670;-73
2023/04/21 09:48:43;;;;;;;2.43;2.23;;;12.40;97.20;;;;;;5048558;28;20723;-73
2023/04/21 09:51:11;;;;;;;3.27;2.97;;;12.60;97.00;;;;;;5048426;28;20656;-73
2023/04/21 09:53:40;;;;;;;2.60;1.90;;;12.70;96.30;;;;;;5040374;28;20663;-73
2023/04/21 09:56:11;;;;;;;2.07;1.77;;;12.90;96.20;;;;;;5048347;28;21014;-73
2023/04/21 09:58:46;;;;;;;2.47;1.87;;;12.80;95.90;;;;;;5041498;28;20730;-73
2023/04/21 10:01:14;;;;;;;4.20;2.20;;;13.00;95.80;;;;;;5044004;28;20879;-73
2023/04/21 10:03:44;;;;;;;2.27;1.80;;;13.10;96.00;;;;;;5048936;28;20210;-73
2023/04/21 10:06:12;;;;;;;2.43;2.23;;;13.10;95.20;;;;;;5048256;28;20767;-73
2023/04/21 10:08:41;;;;;;;2.87;2.13;;;13.10;95.30;;;;;;5047886;28;20658;-73
2023/04/21 10:11:08;;;;;;;2.50;2.27;;;13.10;94.80;;;;;;5048769;28;20658;-74
2023/04/21 10:13:36;;;;;;;3.40;2.63;;;13.20;95.50;;;;;;5048719;28;20679;-73
2023/04/21 10:16:06;;;;;;;2.00;1.63;;;13.30;95.70;;;;;;5045342;28;20653;-73
2023/04/21 10:18:36;;;;;;;3.83;2.97;;;13.50;96.10;;;;;;5029977;28;20632;-72
2023/04/21 10:21:04;;;;;;;4.07;2.37;;;13.70;95.90;;;;;;5048544;28;20691;-70
2023/04/21 10:23:36;;;;;;;4.90;2.70;;;13.70;95.50;;;;;;5048947;28;20680;-72
2023/04/21 10:26:11;;;;;;;4.27;3.20;;;13.90;95.80;;;;;;5048419;28;20699;-73
2023/04/21 10:28:48;;;;;;;3.47;2.80;;;13.90;95.20;;;;;;5040984;28;20668;-74
2023/04/21 10:31:18;;;;;;;4.57;3.90;;;14.10;95.30;;;;;;5048509;28;20647;-73
2023/04/21 10:34:16;;;;;;;7.33;2.87;;;14.30;94.90;;;;;;5048088;28;20732;-71
2023/04/21 10:37:07;;;;;;;3.17;2.90;;;14.40;94.80;;;;;;5048331;28;20746;-73
2023/04/21 10:39:36;;;;;;;2.60;2.30;;;14.60;95.10;;;;;;5037189;28;20737;-72
2023/04/21 10:42:21;;;;;;;4.10;2.70;;;14.80;95.20;;;;;;5046393;28;20659;-72
2023/04/21 10:44:53;;;;;;;3.60;2.80;;;14.90;94.70;;;;;;5048156;28;20636;-72
2023/04/21 10:47:26;;;;;;;4.97;2.70;;;14.90;94.70;;;;;;5048104;28;20658;-71
2023/04/21 10:49:55;;;;;;;5.17;3.00;;;15.50;94.30;;;;;;5042732;28;20633;-72
2023/04/21 10:52:22;;;;;;;3.47;3.03;;;15.40;93.50;;;;;;5030638;28;20691;-72
2023/04/21 10:55:11;;;;;;;3.77;2.70;;;15.60;93.20;;;;;;5043678;28;20666;-71
2023/04/21 10:57:43;;;;;;;3.77;2.63;;;15.60;93.40;;;;;;5044149;28;20616;-71
2023/04/21 11:00:12;;;;;;;3.63;2.83;;;15.70;93.70;;;;;;5046367;28;21205;-71
2023/04/21 11:02:39;;;;;;;4.27;3.97;;;15.50;92.70;;;;;;5047213;28;21248;-71
2023/04/21 11:05:08;;;;;;;3.57;2.40;;;15.60;92.90;;;;;;5047690;28;20624;-72
2023/04/21 11:07:35;;;;;;;2.93;2.30;;;15.60;92.70;;;;;;5046553;28;20651;-72
2023/04/21 11:10:04;;;;;;;5.60;3.23;;;15.90;92.40;;;;;;5046961;28;20652;-72
2023/04/21 11:12:33;;;;;;;5.03;3.53;;;16.00;92.50;;;;;;5047756;28;21514;-72
2023/04/21 11:15:04;;;;;;;3.73;3.00;;;16.30;91.80;;;;;;5047512;28;20669;-72
2023/04/21 11:17:31;;;;;;;5.87;3.30;;;16.60;91.80;;;;;;5047469;28;21266;-72
2023/04/21 11:19:58;;;;;;;3.27;2.97;;;16.60;91.60;;;;;;5047233;28;21197;-72
2023/04/21 11:22:26;;;;;;;4.63;2.60;;;16.70;91.00;;;;;;5047748;28;20648;-72
2023/04/21 11:24:55;;;;;;;3.97;2.87;;;16.90;91.40;;;;;;5048114;28;20997;-72
2023/04/21 11:27:22;;;;;;;5.40;3.10;;;17.20;90.80;;;;;;5046797;28;20645;-72
2023/04/21 11:29:50;;;;;;;4.73;3.50;;;17.30;91.40;;;;;;5043244;28;20626;-73
2023/04/21 11:32:22;;;;;;;4.53;2.80;;;17.60;90.20;;;;;;5047990;28;20649;-73
2023/04/21 11:34:51;;;;;;;4.27;3.03;;;18.00;88.80;;;;;;5047048;28;21221;-74
2023/04/21 11:37:24;;;;;;;3.23;2.57;;;18.10;88.10;;;;;;5047870;28;20646;-73
2023/04/21 11:39:57;;;;;;;3.57;3.27;;;18.40;87.10;;;;;;5046685;28;20646;-73
2023/04/21 11:42:24;;;;;;;4.70;3.70;;;18.80;87.00;;;;;;5042885;28;20650;-73
2023/04/21 11:44:53;;;;;;;3.87;3.47;;;19.20;83.70;;;;;;5042144;28;21569;-73
2023/04/21 11:47:23;;;;;;;3.13;2.40;;;19.40;84.30;;;;;;5047618;28;20654;-73
2023/04/21 11:49:53;;;;;;;5.47;3.00;;;20.10;84.00;;;;;;5046976;28;20633;-73
2023/04/21 11:52:25;;;;;;;4.10;3.80;;;20.60;80.80;;;;;;5047236;28;20647;-74
2023/04/21 11:54:56;;;;;;;4.63;3.30;;;21.00;79.80;;;;;;5030583;28;20651;-73
2023/04/21 11:57:24;;;;;;;3.93;3.53;;;21.50;78.10;;;;;;5046752;28;20685;-73
2023/04/21 11:59:50;;;;;;;3.47;3.10;;;22.10;77.20;;;;;;5046062;28;21169;-73
2023/04/21 12:02:24;;;;;;;3.93;3.13;;;22.80;75.80;;;;;;5047224;28;20649;-74
2023/04/21 12:04:58;;;;;;;4.40;2.80;;;23.70;70.90;;;;;;5049812;28;21191;-74
2023/04/21 12:07:25;;;;;;;2.47;2.23;;;24.50;66.80;;;;;;5050307;28;21183;-74
2023/04/21 12:09:53;;;;;;;2.33;1.57;;;24.90;62.80;;;;;;5049601;28;21258;-74
2023/04/21 12:12:21;;;;;;;3.20;2.87;;;25.00;60.70;;;;;;5050359;28;21113;-74
2023/04/21 12:14:49;;;;;;;3.33;2.67;;;25.10;59.10;;;;;;5050855;28;20660;-74
2023/04/21 12:17:16;;;;;;;2.30;2.10;;;25.00;59.10;;;;;;5051060;28;20647;-72
2023/04/21 12:19:45;;;;;;;2.23;2.03;;;25.50;60.20;;;;;;5049996;28;21067;-74
2023/04/21 12:22:13;;;;;;;2.93;2.60;;;25.90;58.30;;;;;;5051005;28;20653;-74
2023/04/21 12:24:40;;;;;;;3.40;3.10;;;26.30;57.20;;;;;;5050913;28;20950;-74
2023/04/21 12:27:08;;;;;;;3.40;3.10;;;26.40;56.20;;;;;;5050730;28;20742;-74
2023/04/21 12:29:36;;;;;;;2.80;2.50;;;26.70;55.40;;;;;;5050018;28;20658;-74
2023/04/21 12:32:03;;;;;;;3.10;2.80;;;26.80;55.30;;;;;;5051071;28;20665;-74
2023/04/21 12:34:30;;;;;;;2.83;2.63;;;26.90;55.80;;;;;;5050111;28;20660;-74
2023/04/21 12:36:58;;;;;;;3.20;2.57;;;27.00;55.00;;;;;;5050810;28;20654;-74
2023/04/21 12:39:25;;;;;;;2.57;2.37;;;27.30;53.50;;;;;;5049930;28;20631;-74
2023/04/21 12:41:52;;;;;;;2.47;2.20;;;27.70;53.10;;;;;;5036086;28;20643;-74
2023/04/21 12:44:19;;;;;;;2.53;2.33;;;27.80;52.10;;;;;;5026583;28;20621;-74
2023/04/21 12:46:47;;;;;;;2.27;2.10;;;27.60;51.40;;;;;;5049811;28;20665;-74
2023/04/21 12:49:15;;;;;;;2.63;2.43;;;27.40;50.80;;;;;;5050117;28;20640;-74
2023/04/21 12:51:42;;;;;;;3.57;3.00;;;27.60;52.20;;;;;;5050462;28;20689;-74
2023/04/21 12:54:10;;;;;;;2.33;2.13;;;28.10;52.10;;;;;;5050475;28;20664;-73
2023/04/21 12:56:38;;;;;;;2.00;1.87;;;28.50;50.30;;;;;;5050003;28;20660;-74
2023/04/21 12:59:05;;;;;;;2.57;2.37;;;28.40;51.00;;;;;;5049193;28;20630;-74
2023/04/21 13:01:32;;;;;;;2.10;1.90;;;28.80;49.70;;;;;;5049628;28;20650;-74